Time;durP1;ratioP1;P1;durP2;ratioP2;P2;SDS_P1;SDS_P2;PMS_P1;PMS_P2;Temp;Humidity;BMP_temperature;BMP_pressure;BME280_temperature;BME280_humidity;BME280_pressure;Samples;Min_cycle;Max_cycle;Signal;HPM_P1;HPM_P2
2023/01/06 00:00:41;;;;;;;1.83;0.70;;;;;;;;;;5000015;28;20457;-60
2023/01/06 00:03:07;;;;;;;2.10;1.03;;;;;;;;;;5018458;28;20434;-60
2023/01/06 00:05:33;;;;;;;4.83;0.80;;;;;;;;;;5017665;28;20438;-61
2023/01/06 00:07:59;;;;;;;1.70;1.00;;;;;;;;;;5019985;28;20486;-59
2023/01/06 00:10:25;;;;;;;3.13;0.90;;;;;;;;;;5005810;28;20467;-60
2023/01/06 00:12:51;;;;;;;1.50;1.00;;;;;;;;;;5016789;28;20530;-60
2023/01/06 00:15:17;;;;;;;1.63;0.90;;;;;;;;;;4965360;28;20539;-60
2023/01/06 00:17:43;;;;;;;1.40;1.10;;;;;;;;;;5020588;28;21648;-60
2023/01/06 00:20:09;;;;;;;2.30;0.80;;;;;;;;;;5016717;28;20489;-61
2023/01/06 00:22:35;;;;;;;1.47;1.10;;;;;;;;;;5014911;28;20518;-61
2023/01/06 00:25:01;;;;;;;1.20;0.80;;;;;;;;;;5006367;28;20519;-60
2023/01/06 00:27:27;;;;;;;1.67;1.00;;;;;;;;;;5014889;28;20498;-60
2023/01/06 00:29:53;;;;;;;1.73;1.33;;;;;;;;;;5006925;28;21118;-60
2023/01/06 00:32:19;;;;;;;1.33;1.07;;;;;;;;;;5022456;28;20474;-63
2023/01/06 00:34:45;;;;;;;1.83;1.03;;;;;;;;;;4990196;28;20439;-61
2023/01/06 00:37:11;;;;;;;3.17;1.03;;;;;;;;;;5003113;28;20925;-60
2023/01/06 00:39:37;;;;;;;1.40;0.80;;;;;;;;;;4989194;28;20307;-61
2023/01/06 00:42:03;;;;;;;1.13;0.77;;;;;;;;;;5009193;28;20416;-58
2023/01/06 00:44:33;;;;;;;2.07;1.00;;;;;;;;;;4994530;28;20464;-57
2023/01/06 00:46:59;;;;;;;1.47;0.80;;;;;;;;;;5007771;28;20497;-60
2023/01/06 00:49:25;;;;;;;1.50;0.83;;;;;;;;;;4981192;28;20771;-61
2023/01/06 00:51:51;;;;;;;3.37;1.00;;;;;;;;;;4996715;28;21012;-60
2023/01/06 00:54:17;;;;;;;1.53;1.30;;;;;;;;;;5016953;28;20439;-60
2023/01/06 00:56:44;;;;;;;2.30;1.10;;;;;;;;;;4999626;28;20446;-61
2023/01/06 00:59:10;;;;;;;2.33;1.23;;;;;;;;;;5008443;28;20475;-65
2023/01/06 01:01:36;;;;;;;1.57;1.07;;;;;;;;;;4988967;28;20487;-63
2023/01/06 01:04:02;;;;;;;1.27;0.90;;;;;;;;;;5007632;28;20904;-61
2023/01/06 01:06:28;;;;;;;1.63;0.90;;;;;;;;;;4961855;28;20441;-60
2023/01/06 01:08:54;;;;;;;1.53;1.00;;;;;;;;;;5008635;28;20443;-60
2023/01/06 01:14:05;;;;;;;3.20;1.00;;;;;;;;;;5008379;28;21199;-60
2023/01/06 01:16:31;;;;;;;1.80;1.40;;;;;;;;;;4985587;28;20452;-60
2023/01/06 01:18:57;;;;;;;1.87;0.97;;;;;;;;;;5005714;28;20476;-61
2023/01/06 01:21:23;;;;;;;1.97;1.40;;;;;;;;;;4936321;28;20677;-61
2023/01/06 01:23:49;;;;;;;1.43;0.97;;;;;;;;;;4987888;28;20444;-60
2023/01/06 01:26:15;;;;;;;2.37;1.20;;;;;;;;;;5013616;28;20466;-62
2023/01/06 01:28:41;;;;;;;2.80;1.03;;;;;;;;;;4987565;28;20499;-61
2023/01/06 01:31:07;;;;;;;1.40;1.20;;;;;;;;;;5013423;28;20472;-58
2023/01/06 01:33:33;;;;;;;2.60;1.27;;;;;;;;;;5006983;28;20583;-60
2023/01/06 01:36:06;;;;;;;1.47;0.70;;;;;;;;;;5011496;28;20514;-60
2023/01/06 01:38:32;;;;;;;1.50;1.20;;;;;;;;;;4982181;28;20559;-61
2023/01/06 01:40:58;;;;;;;1.77;0.90;;;;;;;;;;5014286;28;20539;-60
2023/01/06 01:43:23;;;;;;;2.30;1.10;;;;;;;;;;5004198;28;20827;-61
2023/01/06 01:45:50;;;;;;;2.17;1.37;;;;;;;;;;5007707;28;20725;-61
2023/01/06 01:48:19;;;;;;;2.07;1.40;;;;;;;;;;4965576;28;20527;-61
2023/01/06 01:50:46;;;;;;;2.57;1.80;;;;;;;;;;5007218;28;20436;-60
2023/01/06 01:53:24;;;;;;;2.83;1.80;;;;;;;;;;4951217;28;20505;-59
2023/01/06 01:55:50;;;;;;;1.53;1.10;;;;;;;;;;4999515;28;20451;-61
2023/01/06 01:58:19;;;;;;;2.47;1.23;;;;;;;;;;4966557;28;20466;-61
2023/01/06 02:00:45;;;;;;;2.57;1.40;;;;;;;;;;5004057;28;21056;-60
2023/01/06 02:03:11;;;;;;;3.10;1.30;;;;;;;;;;5005150;28;20529;-61
2023/01/06 02:05:39;;;;;;;5.30;1.63;;;;;;;;;;4998180;28;20182;-59
2023/01/06 02:08:14;;;;;;;2.10;1.43;;;;;;;;;;4979505;28;20455;-60
2023/01/06 02:10:40;;;;;;;1.60;1.30;;;;;;;;;;5003773;28;21220;-61
2023/01/06 02:13:06;;;;;;;1.30;1.20;;;;;;;;;;5007071;28;20439;-60
2023/01/06 02:15:32;;;;;;;2.37;1.20;;;;;;;;;;5011570;28;20531;-60
2023/01/06 02:18:07;;;;;;;2.00;1.40;;;;;;;;;;4987905;28;20550;-60
2023/01/06 02:20:33;;;;;;;1.53;1.03;;;;;;;;;;5009281;28;20447;-61
2023/01/06 02:23:17;;;;;;;1.57;1.00;;;;;;;;;;4966847;28;21037;-63
2023/01/06 02:26:02;;;;;;;1.83;1.17;;;;;;;;;;5007701;28;20228;-62
2023/01/06 02:28:52;;;;;;;1.80;1.27;;;;;;;;;;4982926;28;20471;-61
2023/01/06 02:31:21;;;;;;;1.70;1.37;;;;;;;;;;4986583;28;20455;-60
2023/01/06 02:33:51;;;;;;;1.63;1.13;;;;;;;;;;4994788;28;20434;-57
2023/01/06 02:36:22;;;;;;;1.50;1.10;;;;;;;;;;4983394;28;21003;-60
2023/01/06 02:38:48;;;;;;;1.80;1.20;;;;;;;;;;4965514;28;20473;-61
2023/01/06 02:41:26;;;;;;;1.37;1.00;;;;;;;;;;5004203;28;20495;-60
2023/01/06 02:43:52;;;;;;;3.57;1.50;;;;;;;;;;4990947;28;20430;-59
2023/01/06 02:46:24;;;;;;;1.50;1.10;;;;;;;;;;4991924;28;20454;-61
2023/01/06 02:49:09;;;;;;;1.33;0.90;;;;;;;;;;4996370;28;20502;-61
2023/01/06 02:51:51;;;;;;;1.70;1.10;;;;;;;;;;5007989;28;20439;-61
2023/01/06 02:54:26;;;;;;;3.17;1.10;;;;;;;;;;4986521;28;20502;-60
2023/01/06 02:57:11;;;;;;;1.53;0.80;;;;;;;;;;4975532;28;21950;-61
2023/01/06 02:59:38;;;;;;;1.70;0.93;;;;;;;;;;5012594;28;21155;-62
2023/01/06 03:02:04;;;;;;;1.57;1.00;;;;;;;;;;4973993;28;20451;-60
2023/01/06 03:04:31;;;;;;;1.40;1.03;;;;;;;;;;4992511;28;20475;-60
2023/01/06 03:06:57;;;;;;;1.83;1.17;;;;;;;;;;4987339;28;21297;-62
2023/01/06 03:09:26;;;;;;;2.33;1.17;;;;;;;;;;5003166;28;20440;-60
2023/01/06 03:11:52;;;;;;;1.20;0.90;;;;;;;;;;4975331;28;21850;-64
2023/01/06 03:14:21;;;;;;;1.43;1.07;;;;;;;;;;4994469;28;20452;-60
2023/01/06 03:16:47;;;;;;;2.80;1.20;;;;;;;;;;4988717;28;20440;-62
2023/01/06 03:19:13;;;;;;;1.73;1.00;;;;;;;;;;4998776;28;20479;-60
2023/01/06 03:21:39;;;;;;;3.27;1.20;;;;;;;;;;4982017;28;20493;-61
2023/01/06 03:24:06;;;;;;;1.70;1.20;;;;;;;;;;5016347;28;20435;-60
2023/01/06 03:26:41;;;;;;;1.20;0.80;;;;;;;;;;4966503;28;21141;-62
2023/01/06 03:29:08;;;;;;;1.53;1.00;;;;;;;;;;4970661;28;20454;-61
2023/01/06 03:31:39;;;;;;;2.33;1.60;;;;;;;;;;4988967;28;20448;-60
2023/01/06 03:34:17;;;;;;;1.17;0.93;;;;;;;;;;4987400;28;20458;-62
2023/01/06 03:36:47;;;;;;;2.07;1.00;;;;;;;;;;4978058;28;21610;-61
2023/01/06 03:39:22;;;;;;;2.23;1.10;;;;;;;;;;4991052;28;20481;-60
2023/01/06 03:44:44;;;;;;;4.03;1.20;;;;;;;;;;4992662;28;20475;-61
2023/01/06 03:47:13;;;;;;;2.50;1.23;;;;;;;;;;4983475;28;20459;-61
2023/01/06 03:49:41;;;;;;;1.57;1.10;;;;;;;;;;4990106;28;20482;-61
2023/01/06 03:52:07;;;;;;;1.50;1.00;;;;;;;;;;5011957;28;20442;-64
2023/01/06 03:54:45;;;;;;;1.70;1.43;;;;;;;;;;5017046;28;20408;-61
2023/01/06 03:57:21;;;;;;;1.67;1.10;;;;;;;;;;4972745;28;20537;-61
2023/01/06 03:59:55;;;;;;;8.47;1.47;;;;;;;;;;4990000;28;20495;-62
2023/01/06 04:02:20;;;;;;;1.73;1.30;;;;;;;;;;4944599;28;20437;-59
2023/01/06 04:05:05;;;;;;;2.50;0.90;;;;;;;;;;5004556;28;20466;-61
2023/01/06 04:07:31;;;;;;;1.97;1.20;;;;;;;;;;4982192;28;20438;-62
2023/01/06 04:09:57;;;;;;;1.63;1.33;;;;;;;;;;5008269;28;20440;-62
2023/01/06 04:12:38;;;;;;;1.77;1.10;;;;;;;;;;5006055;28;20177;-61
2023/01/06 04:15:09;;;;;;;1.40;1.07;;;;;;;;;;5002336;28;20434;-62
2023/01/06 04:17:35;;;;;;;2.37;2.03;;;;;;;;;;4981179;28;20444;-70
2023/01/06 04:20:01;;;;;;;3.10;1.53;;;;;;;;;;5007227;28;20483;-60
2023/01/06 04:22:27;;;;;;;2.57;1.43;;;;;;;;;;5003199;28;20443;-61
2023/01/06 04:24:53;;;;;;;2.20;1.30;;;;;;;;;;5008694;28;20446;-61
2023/01/06 04:27:19;;;;;;;3.30;1.40;;;;;;;;;;4982165;28;20432;-62
2023/01/06 04:29:45;;;;;;;2.77;1.60;;;;;;;;;;5008922;28;20459;-59
2023/01/06 04:32:11;;;;;;;2.13;1.07;;;;;;;;;;4936285;28;21004;-60
2023/01/06 04:34:37;;;;;;;2.80;1.30;;;;;;;;;;4994523;28;20200;-61
2023/01/06 04:37:03;;;;;;;1.20;0.70;;;;;;;;;;4979086;28;20834;-61
2023/01/06 04:39:29;;;;;;;2.93;1.23;;;;;;;;;;5005491;28;20992;-60
2023/01/06 04:41:55;;;;;;;6.80;2.23;;;;;;;;;;5007379;28;21262;-61
2023/01/06 04:44:21;;;;;;;1.80;1.37;;;;;;;;;;5013496;28;21165;-60
2023/01/06 04:46:47;;;;;;;2.03;1.10;;;;;;;;;;4979331;28;20186;-62
2023/01/06 04:49:13;;;;;;;1.57;1.10;;;;;;;;;;5006104;28;20245;-60
2023/01/06 04:51:39;;;;;;;1.70;1.27;;;;;;;;;;5009791;28;20482;-65
2023/01/06 04:54:05;;;;;;;3.83;1.10;;;;;;;;;;5017644;28;20185;-59
2023/01/06 04:56:31;;;;;;;1.53;1.10;;;;;;;;;;5015171;28;20479;-61
2023/01/06 04:58:57;;;;;;;1.30;0.90;;;;;;;;;;5002869;28;20517;-62
2023/01/06 05:01:29;;;;;;;1.90;1.30;;;;;;;;;;4991256;28;20228;-61
2023/01/06 05:03:56;;;;;;;1.50;1.00;;;;;;;;;;4989514;28;21003;-62
2023/01/06 05:06:21;;;;;;;1.50;1.10;;;;;;;;;;5007609;28;21359;-61
2023/01/06 05:08:47;;;;;;;2.13;1.20;;;;;;;;;;4993557;28;20432;-60
2023/01/06 05:11:14;;;;;;;1.90;1.40;;;;;;;;;;5008082;28;20433;-62
2023/01/06 05:13:40;;;;;;;2.10;1.07;;;;;;;;;;5004617;28;20582;-60
2023/01/06 05:16:07;;;;;;;1.50;1.03;;;;;;;;;;5013474;28;20504;-61
2023/01/06 05:18:33;;;;;;;2.60;1.30;;;;;;;;;;4987527;28;20487;-61
2023/01/06 05:20:59;;;;;;;1.10;0.80;;;;;;;;;;5003913;28;20435;-61
2023/01/06 05:23:24;;;;;;;1.50;1.20;;;;;;;;;;4983995;28;20479;-61
2023/01/06 05:25:51;;;;;;;4.17;1.30;;;;;;;;;;5011127;28;20425;-60
2023/01/06 05:28:17;;;;;;;1.60;1.00;;;;;;;;;;5008088;28;20901;-61
2023/01/06 05:30:43;;;;;;;1.47;1.03;;;;;;;;;;5012656;28;20478;-60
2023/01/06 05:33:09;;;;;;;1.53;1.13;;;;;;;;;;4959871;28;20536;-61
2023/01/06 05:35:35;;;;;;;2.47;1.30;;;;;;;;;;5013938;28;20427;-61
2023/01/06 05:38:00;;;;;;;2.13;1.30;;;;;;;;;;4987445;28;20455;-60
2023/01/06 05:40:27;;;;;;;1.73;1.33;;;;;;;;;;4990119;28;20468;-60
2023/01/06 05:42:56;;;;;;;1.87;1.50;;;;;;;;;;4977512;28;20448;-60
2023/01/06 05:45:22;;;;;;;2.40;1.50;;;;;;;;;;5015193;28;20467;-60
2023/01/06 05:47:48;;;;;;;2.10;1.30;;;;;;;;;;4995599;28;20518;-59
2023/01/06 05:50:14;;;;;;;2.60;1.30;;;;;;;;;;5004400;28;20844;-59
2023/01/06 05:52:40;;;;;;;2.77;1.77;;;;;;;;;;4992177;28;20478;-60
2023/01/06 05:55:06;;;;;;;2.50;1.23;;;;;;;;;;4999029;28;20666;-60
2023/01/06 05:57:33;;;;;;;1.60;1.20;;;;;;;;;;5000657;28;20442;-60
2023/01/06 05:59:59;;;;;;;1.80;1.27;;;;;;;;;;4996044;28;20484;-60
2023/01/06 06:02:28;;;;;;;4.63;1.77;;;;;;;;;;4999194;28;20426;-61
2023/01/06 06:04:54;;;;;;;2.03;1.47;;;;;;;;;;4982242;28;20448;-60
2023/01/06 06:07:20;;;;;;;2.20;2.00;;;;;;;;;;4991849;28;20441;-60
2023/01/06 06:09:46;;;;;;;1.93;1.67;;;;;;;;;;5009658;28;20501;-61
2023/01/06 06:12:12;;;;;;;1.93;1.27;;;;;;;;;;5014780;28;20427;-59
2023/01/06 06:14:38;;;;;;;1.90;1.67;;;;;;;;;;5013347;28;20177;-60
2023/01/06 06:17:04;;;;;;;2.60;1.80;;;;;;;;;;5015190;28;20415;-61
2023/01/06 06:19:30;;;;;;;2.50;1.90;;;;;;;;;;4983897;28;20480;-61
2023/01/06 06:21:56;;;;;;;4.93;1.53;;;;;;;;;;5007206;28;20471;-61
2023/01/06 06:24:22;;;;;;;1.90;1.70;;;;;;;;;;5008162;28;20440;-61
2023/01/06 06:26:48;;;;;;;1.57;1.13;;;;;;;;;;5002515;28;20484;-61
2023/01/06 06:29:13;;;;;;;1.80;1.47;;;;;;;;;;4980329;28;20462;-61
2023/01/06 06:31:39;;;;;;;3.30;1.30;;;;;;;;;;5010845;28;20440;-61
2023/01/06 06:34:05;;;;;;;1.50;1.23;;;;;;;;;;5008365;28;20447;-61
2023/01/06 06:36:31;;;;;;;1.93;1.73;;;;;;;;;;5002565;28;20442;-60
2023/01/06 06:38:57;;;;;;;1.60;1.30;;;;;;;;;;4969553;28;20618;-61
2023/01/06 06:41:23;;;;;;;1.53;1.17;;;;;;;;;;5012047;28;20433;-61
2023/01/06 06:43:49;;;;;;;1.80;1.37;;;;;;;;;;5003016;28;20438;-61
2023/01/06 06:46:15;;;;;;;2.73;1.43;;;;;;;;;;5008331;28;20420;-60
2023/01/06 06:48:41;;;;;;;2.00;1.27;;;;;;;;;;5010236;28;20428;-61
2023/01/06 06:51:08;;;;;;;2.50;1.20;;;;;;;;;;5017215;28;20439;-62
2023/01/06 06:53:34;;;;;;;1.40;1.03;;;;;;;;;;5014301;28;20493;-61
2023/01/06 06:56:00;;;;;;;2.20;1.40;;;;;;;;;;5016521;28;20450;-61
2023/01/06 06:58:26;;;;;;;1.30;1.00;;;;;;;;;;4982049;28;20496;-62
2023/01/06 07:00:52;;;;;;;2.33;1.20;;;;;;;;;;5008794;28;20449;-62
2023/01/06 07:03:19;;;;;;;1.80;1.50;;;;;;;;;;4979561;28;20447;-62
2023/01/06 07:05:45;;;;;;;1.80;1.23;;;;;;;;;;5012353;28;20441;-61
2023/01/06 07:08:11;;;;;;;1.67;1.30;;;;;;;;;;4950303;28;20455;-61
2023/01/06 07:10:37;;;;;;;1.40;1.20;;;;;;;;;;5019407;28;20427;-61
2023/01/06 07:13:03;;;;;;;1.37;0.93;;;;;;;;;;5003002;28;21262;-62
2023/01/06 07:15:29;;;;;;;2.27;0.90;;;;;;;;;;5013432;28;20438;-61
2023/01/06 07:17:55;;;;;;;1.43;1.10;;;;;;;;;;5007893;28;20454;-65
2023/01/06 07:20:21;;;;;;;1.80;1.13;;;;;;;;;;5014169;28;20994;-62
2023/01/06 07:22:47;;;;;;;1.70;1.10;;;;;;;;;;5012304;28;21023;-60
2023/01/06 07:25:13;;;;;;;2.03;1.20;;;;;;;;;;5001676;28;20440;-61
2023/01/06 07:27:39;;;;;;;1.87;1.20;;;;;;;;;;4994747;28;20448;-61
2023/01/06 07:30:05;;;;;;;2.67;1.40;;;;;;;;;;4996177;28;20194;-60
2023/01/06 07:32:31;;;;;;;1.77;0.90;;;;;;;;;;4994373;28;20455;-62
2023/01/06 07:34:57;;;;;;;1.57;0.87;;;;;;;;;;4989796;28;20983;-60
2023/01/06 07:37:23;;;;;;;2.20;1.30;;;;;;;;;;5000277;28;20546;-62
2023/01/06 07:39:49;;;;;;;3.13;1.47;;;;;;;;;;4990169;28;20478;-60
2023/01/06 07:42:33;;;;;;;1.30;1.10;;;;;;;;;;4998867;28;20431;-62
2023/01/06 07:44:59;;;;;;;2.00;1.23;;;;;;;;;;4993218;28;20497;-61
2023/01/06 07:47:25;;;;;;;2.47;1.30;;;;;;;;;;4995325;28;20420;-63
2023/01/06 07:49:51;;;;;;;2.00;1.17;;;;;;;;;;4998238;28;20519;-62
2023/01/06 07:52:17;;;;;;;2.10;1.20;;;;;;;;;;5011482;28;20489;-62
2023/01/06 07:54:43;;;;;;;2.60;1.70;;;;;;;;;;4995777;28;20276;-57
2023/01/06 07:57:09;;;;;;;2.00;1.50;;;;;;;;;;5012997;28;20427;-60
2023/01/06 07:59:35;;;;;;;2.03;1.70;;;;;;;;;;4984754;28;20476;-60
2023/01/06 08:02:01;;;;;;;1.60;1.30;;;;;;;;;;5012560;28;20434;-60
2023/01/06 08:04:27;;;;;;;1.53;1.30;;;;;;;;;;4993147;28;20440;-60
2023/01/06 08:06:53;;;;;;;1.83;1.63;;;;;;;;;;4988461;28;20869;-60
2023/01/06 08:09:19;;;;;;;2.80;1.90;;;;;;;;;;4974843;28;20498;-60
2023/01/06 08:11:45;;;;;;;1.80;1.50;;;;;;;;;;5006465;28;20432;-62
2023/01/06 08:14:11;;;;;;;2.47;2.10;;;;;;;;;;4962208;28;21373;-61
2023/01/06 08:16:40;;;;;;;2.13;1.73;;;;;;;;;;5012617;28;20582;-61
2023/01/06 08:19:06;;;;;;;2.33;1.70;;;;;;;;;;5005987;28;20475;-61
2023/01/06 08:21:32;;;;;;;2.13;1.83;;;;;;;;;;5002094;28;21661;-61
2023/01/06 08:23:58;;;;;;;2.97;1.60;;;;;;;;;;5012978;28;21063;-63
2023/01/06 08:26:24;;;;;;;2.07;1.77;;;;;;;;;;5011282;28;20527;-62
2023/01/06 08:28:50;;;;;;;1.87;1.73;;;;;;;;;;4985798;28;20471;-61
2023/01/06 08:31:17;;;;;;;2.73;1.87;;;;;;;;;;5017053;28;20449;-61
2023/01/06 08:33:43;;;;;;;1.93;1.67;;;;;;;;;;5013822;28;20803;-61
2023/01/06 08:36:11;;;;;;;2.20;1.70;;;;;;;;;;5014382;28;20431;-61
2023/01/06 08:38:37;;;;;;;2.03;1.60;;;;;;;;;;4986702;28;20444;-60
2023/01/06 08:41:03;;;;;;;2.03;1.57;;;;;;;;;;5010209;28;20472;-61
2023/01/06 08:43:30;;;;;;;2.43;1.87;;;;;;;;;;4985488;28;20443;-62
2023/01/06 08:46:03;;;;;;;2.30;1.87;;;;;;;;;;5010216;28;20447;-60
2023/01/06 08:48:29;;;;;;;1.93;1.40;;;;;;;;;;4965762;28;20491;-61
2023/01/06 08:50:55;;;;;;;2.90;1.40;;;;;;;;;;5019237;28;20439;-62
2023/01/06 08:53:21;;;;;;;2.50;1.37;;;;;;;;;;5006841;28;20813;-60
2023/01/06 08:55:47;;;;;;;2.20;1.63;;;;;;;;;;5013720;28;20432;-62
2023/01/06 08:58:13;;;;;;;2.77;1.53;;;;;;;;;;4964752;28;20462;-61
2023/01/06 09:00:40;;;;;;;1.80;1.20;;;;;;;;;;5011826;28;21393;-63
2023/01/06 09:03:06;;;;;;;1.90;1.30;;;;;;;;;;5004414;28;20429;-62
2023/01/06 09:05:32;;;;;;;1.83;1.00;;;;;;;;;;5006431;28;20447;-60
2023/01/06 09:07:58;;;;;;;1.30;1.03;;;;;;;;;;4982745;28;21646;-62
2023/01/06 09:10:24;;;;;;;1.20;0.80;;;;;;;;;;5006256;28;20431;-62
2023/01/06 09:12:50;;;;;;;1.20;1.00;;;;;;;;;;5007912;28;20973;-62
2023/01/06 09:15:16;;;;;;;1.80;1.00;;;;;;;;;;5014016;28;20427;-62
2023/01/06 09:17:43;;;;;;;2.10;0.90;;;;;;;;;;4977255;28;20455;-60
2023/01/06 09:20:09;;;;;;;1.47;0.80;;;;;;;;;;5000310;28;20463;-62
2023/01/06 09:22:35;;;;;;;1.50;0.70;;;;;;;;;;5006338;28;20992;-61
2023/01/06 09:25:01;;;;;;;1.30;1.00;;;;;;;;;;5012113;28;20532;-61
2023/01/06 09:27:27;;;;;;;1.70;0.90;;;;;;;;;;5004178;28;20448;-63
2023/01/06 09:29:53;;;;;;;1.10;0.60;;;;;;;;;;4987454;28;20187;-62
2023/01/06 09:32:19;;;;;;;1.20;0.90;;;;;;;;;;5009994;28;20910;-62
2023/01/06 09:34:45;;;;;;;1.60;1.13;;;;;;;;;;5005241;28;20873;-62
2023/01/06 09:37:11;;;;;;;1.40;0.90;;;;;;;;;;5013570;28;20439;-61
2023/01/06 09:39:37;;;;;;;1.20;0.80;;;;;;;;;;5009221;28;20915;-61
2023/01/06 09:42:02;;;;;;;0.97;0.67;;;;;;;;;;5016130;28;20180;-62
2023/01/06 09:44:29;;;;;;;1.53;0.90;;;;;;;;;;5012865;28;20455;-62
2023/01/06 09:46:55;;;;;;;1.20;0.67;;;;;;;;;;4992868;28;20936;-63
2023/01/06 09:49:27;;;;;;;1.80;0.80;;;;;;;;;;4968869;28;20499;-62
2023/01/06 09:51:54;;;;;;;1.10;0.80;;;;;;;;;;4999592;28;20183;-63
2023/01/06 09:54:21;;;;;;;1.20;0.90;;;;;;;;;;4964711;28;20435;-62
2023/01/06 09:56:49;;;;;;;1.70;1.13;;;;;;;;;;4999339;28;20484;-61
2023/01/06 09:59:35;;;;;;;1.20;0.70;;;;;;;;;;4968435;28;21003;-60
2023/01/06 10:02:01;;;;;;;1.10;0.60;;;;;;;;;;5018480;28;20424;-61
2023/01/06 10:04:27;;;;;;;1.23;0.60;;;;;;;;;;5001743;28;20475;-60
2023/01/06 10:07:17;;;;;;;0.97;0.60;;;;;;;;;;5010224;28;20425;-60
2023/01/06 10:09:53;;;;;;;1.10;0.60;;;;;;;;;;5007836;28;20473;-59
2023/01/06 10:12:25;;;;;;;1.77;1.20;;;;;;;;;;4986480;28;20451;-59
2023/01/06 10:15:06;;;;;;;1.20;0.53;;;;;;;;;;5010871;28;20431;-60
2023/01/06 10:17:42;;;;;;;1.20;0.70;;;;;;;;;;4995334;28;20470;-62
2023/01/06 10:20:12;;;;;;;1.00;0.60;;;;;;;;;;4995332;28;20862;-59
2023/01/06 10:22:51;;;;;;;1.00;0.60;;;;;;;;;;4984792;28;20520;-62
2023/01/06 10:25:21;;;;;;;0.90;0.50;;;;;;;;;;5014559;28;20963;-61
2023/01/06 10:27:55;;;;;;;1.00;0.60;;;;;;;;;;4978014;28;20772;-62
2023/01/06 10:30:32;;;;;;;1.23;0.87;;;;;;;;;;4993541;28;20439;-61
2023/01/06 10:32:58;;;;;;;1.17;0.70;;;;;;;;;;4999222;28;20541;-62
2023/01/06 10:35:24;;;;;;;1.20;0.60;;;;;;;;;;5006310;28;20453;-62
2023/01/06 10:37:51;;;;;;;1.00;0.50;;;;;;;;;;4990885;28;20447;-62
2023/01/06 10:40:18;;;;;;;0.90;0.50;;;;;;;;;;5006285;28;20480;-63
2023/01/06 10:42:56;;;;;;;1.00;0.70;;;;;;;;;;5013554;28;20447;-62
2023/01/06 10:45:29;;;;;;;1.10;0.60;;;;;;;;;;5013199;28;20432;-62
2023/01/06 10:47:55;;;;;;;1.10;0.50;;;;;;;;;;4994052;28;20757;-65
2023/01/06 10:50:21;;;;;;;1.00;0.50;;;;;;;;;;4987162;28;20440;-62
2023/01/06 10:52:47;;;;;;;3.53;0.90;;;;;;;;;;4991804;28;20412;-63
2023/01/06 10:55:25;;;;;;;0.90;0.50;;;;;;;;;;5010643;28;20935;-61
2023/01/06 10:57:52;;;;;;;1.00;0.60;;;;;;;;;;5003395;28;20550;-61
2023/01/06 11:00:22;;;;;;;1.20;0.60;;;;;;;;;;5012585;28;20480;-62
2023/01/06 11:02:49;;;;;;;1.13;0.50;;;;;;;;;;4967715;28;20437;-60
2023/01/06 11:05:15;;;;;;;1.50;0.60;;;;;;;;;;4973403;28;21000;-63
2023/01/06 11:07:45;;;;;;;0.90;0.50;;;;;;;;;;5004996;28;20463;-62
2023/01/06 11:10:20;;;;;;;1.00;0.50;;;;;;;;;;4969159;28;20427;-62
2023/01/06 11:12:46;;;;;;;1.00;0.50;;;;;;;;;;4984044;28;20451;-60
2023/01/06 11:15:14;;;;;;;0.90;0.50;;;;;;;;;;4976318;28;20960;-62
2023/01/06 11:17:40;;;;;;;1.20;0.80;;;;;;;;;;4989785;28;20498;-59
2023/01/06 11:20:06;;;;;;;1.10;0.57;;;;;;;;;;4993439;28;20573;-61
2023/01/06 11:22:34;;;;;;;1.30;0.70;;;;;;;;;;5012289;28;20424;-62
2023/01/06 11:25:00;;;;;;;1.20;0.60;;;;;;;;;;5018664;28;20517;-62
2023/01/06 11:27:28;;;;;;;1.00;0.60;;;;;;;;;;5006570;28;20432;-62
2023/01/06 11:29:54;;;;;;;1.10;0.60;;;;;;;;;;4982750;28;20450;-60
2023/01/06 11:32:21;;;;;;;1.10;0.60;;;;;;;;;;5002593;28;20518;-63
2023/01/06 11:34:57;;;;;;;1.37;0.80;;;;;;;;;;4950820;28;20454;-61
2023/01/06 11:37:30;;;;;;;1.27;0.90;;;;;;;;;;5008760;28;20472;-63
2023/01/06 11:39:56;;;;;;;1.30;0.80;;;;;;;;;;4985865;28;20479;-62
2023/01/06 11:42:22;;;;;;;1.20;0.50;;;;;;;;;;5007994;28;20432;-60
2023/01/06 11:44:48;;;;;;;1.23;1.00;;;;;;;;;;5006107;28;20440;-61
2023/01/06 11:47:15;;;;;;;1.20;0.80;;;;;;;;;;5009624;28;20178;-61
2023/01/06 11:49:51;;;;;;;1.40;0.70;;;;;;;;;;4965550;28;20220;-62
2023/01/06 11:52:17;;;;;;;1.00;0.50;;;;;;;;;;5005052;28;20478;-62
2023/01/06 11:54:43;;;;;;;2.00;0.87;;;;;;;;;;5003017;28;20533;-61
2023/01/06 11:57:24;;;;;;;1.20;0.70;;;;;;;;;;4993389;28;20200;-58
2023/01/06 12:00:09;;;;;;;1.20;0.70;;;;;;;;;;4990142;28;20514;-61
2023/01/06 12:02:55;;;;;;;2.23;0.70;;;;;;;;;;5005693;28;20431;-61
2023/01/06 12:05:30;;;;;;;1.10;0.57;;;;;;;;;;5000202;28;20838;-60
2023/01/06 12:07:56;;;;;;;2.73;0.80;;;;;;;;;;4988431;28;21396;-62
2023/01/06 12:10:28;;;;;;;1.17;0.60;;;;;;;;;;4942893;28;20975;-62
2023/01/06 12:12:53;;;;;;;1.10;0.77;;;;;;;;;;4994416;28;20479;-65
2023/01/06 12:15:19;;;;;;;1.33;0.63;;;;;;;;;;5011369;28;20550;-64
2023/01/06 12:17:56;;;;;;;1.00;0.57;;;;;;;;;;5021799;28;20530;-61
2023/01/06 12:20:24;;;;;;;1.10;0.80;;;;;;;;;;4991624;28;20468;-62
2023/01/06 12:22:53;;;;;;;1.13;0.67;;;;;;;;;;4993961;28;20494;-62
2023/01/06 12:25:26;;;;;;;0.97;0.60;;;;;;;;;;4986451;28;20431;-61
2023/01/06 12:27:56;;;;;;;1.10;0.60;;;;;;;;;;4998506;28;20451;-61
2023/01/06 12:30:28;;;;;;;1.07;0.67;;;;;;;;;;4967330;28;20452;-61
2023/01/06 12:32:55;;;;;;;1.03;0.50;;;;;;;;;;5010726;28;20451;-60
2023/01/06 12:35:24;;;;;;;1.00;0.60;;;;;;;;;;5009123;28;20440;-61
2023/01/06 12:37:53;;;;;;;1.20;0.80;;;;;;;;;;4995235;28;20471;-59
2023/01/06 12:40:38;;;;;;;1.10;0.60;;;;;;;;;;5007256;28;20910;-63
2023/01/06 12:43:13;;;;;;;1.20;0.60;;;;;;;;;;5013489;28;20430;-62
2023/01/06 12:45:46;;;;;;;1.00;0.60;;;;;;;;;;4977128;28;20948;-61
2023/01/06 12:48:27;;;;;;;1.30;0.70;;;;;;;;;;4995602;28;20444;-62
2023/01/06 12:50:55;;;;;;;1.87;0.80;;;;;;;;;;4995030;28;20976;-61
2023/01/06 12:53:24;;;;;;;1.10;0.80;;;;;;;;;;4995778;28;20528;-62
2023/01/06 12:56:08;;;;;;;1.30;0.70;;;;;;;;;;4986165;28;20433;-61
2023/01/06 12:58:37;;;;;;;1.00;0.60;;;;;;;;;;5009747;28;20523;-61
2023/01/06 13:01:06;;;;;;;1.10;0.70;;;;;;;;;;4987453;28;20551;-61
2023/01/06 13:03:40;;;;;;;1.20;0.57;;;;;;;;;;5010201;28;20930;-62
2023/01/06 13:06:06;;;;;;;4.10;0.60;;;;;;;;;;4994264;28;20465;-59
2023/01/06 13:08:51;;;;;;;1.27;0.73;;;;;;;;;;5011686;28;20467;-61
2023/01/06 13:11:36;;;;;;;1.30;0.60;;;;;;;;;;4986471;28;20458;-61
2023/01/06 13:14:14;;;;;;;1.00;0.60;;;;;;;;;;4997371;28;20925;-62
2023/01/06 13:16:55;;;;;;;0.97;0.50;;;;;;;;;;4992298;28;20637;-62
2023/01/06 13:19:56;;;;;;;2.17;0.80;;;;;;;;;;4975341;28;20468;-63
2023/01/06 13:22:24;;;;;;;1.30;0.70;;;;;;;;;;4935659;29;20493;-62
2023/01/06 13:25:11;;;;;;;1.30;0.90;;;;;;;;;;4955881;28;21022;-61
2023/01/06 13:27:39;;;;;;;1.10;0.60;;;;;;;;;;4987364;28;20542;-61
2023/01/06 13:30:12;;;;;;;1.20;0.70;;;;;;;;;;4984618;28;20440;-59
2023/01/06 13:32:39;;;;;;;2.50;0.70;;;;;;;;;;4989953;28;20463;-62
2023/01/06 13:35:14;;;;;;;1.50;0.77;;;;;;;;;;4992103;28;20493;-61
2023/01/06 13:37:40;;;;;;;1.30;0.87;;;;;;;;;;5012133;28;20432;-61
2023/01/06 13:40:09;;;;;;;2.23;1.23;;;;;;;;;;4976811;28;20826;-62
2023/01/06 13:42:37;;;;;;;2.20;0.93;;;;;;;;;;5012681;28;20439;-59
2023/01/06 13:45:03;;;;;;;1.33;0.80;;;;;;;;;;4960416;28;20437;-61
2023/01/06 13:47:30;;;;;;;1.13;0.80;;;;;;;;;;4989106;28;20436;-62
2023/01/06 13:49:57;;;;;;;1.40;0.90;;;;;;;;;;4967165;28;20431;-62
2023/01/06 13:52:23;;;;;;;1.27;0.87;;;;;;;;;;5002628;28;20435;-60
2023/01/06 13:54:49;;;;;;;2.03;0.60;;;;;;;;;;4983087;28;21599;-61
2023/01/06 13:57:21;;;;;;;1.10;0.67;;;;;;;;;;4976263;28;20439;-61
2023/01/06 14:00:05;;;;;;;1.23;0.63;;;;;;;;;;5010388;28;20840;-62
2023/01/06 14:02:34;;;;;;;1.93;0.80;;;;;;;;;;4964009;28;20428;-56
2023/01/06 14:05:06;;;;;;;1.00;0.60;;;;;;;;;;5007735;28;20439;-62
2023/01/06 14:07:32;;;;;;;1.30;0.73;;;;;;;;;;5008971;28;20435;-63
2023/01/06 14:09:58;;;;;;;1.00;0.60;;;;;;;;;;5010433;28;20440;-62
2023/01/06 14:12:24;;;;;;;1.20;0.90;;;;;;;;;;4956774;28;20946;-61
2023/01/06 14:14:54;;;;;;;1.13;0.70;;;;;;;;;;5011705;28;20462;-63
2023/01/06 14:17:39;;;;;;;1.63;0.83;;;;;;;;;;4947527;28;20453;-62
2023/01/06 14:20:05;;;;;;;1.77;0.70;;;;;;;;;;5007856;28;20467;-62
2023/01/06 14:22:32;;;;;;;1.47;0.70;;;;;;;;;;4977711;28;20915;-62
2023/01/06 14:24:59;;;;;;;3.73;0.60;;;;;;;;;;5010556;28;20964;-61
2023/01/06 14:27:44;;;;;;;1.10;0.70;;;;;;;;;;4968839;28;20526;-61
2023/01/06 14:30:29;;;;;;;1.30;0.60;;;;;;;;;;5012670;28;20415;-61
2023/01/06 14:33:05;;;;;;;1.00;0.60;;;;;;;;;;4993041;28;20452;-62
2023/01/06 14:35:43;;;;;;;1.10;0.50;;;;;;;;;;4983359;28;20442;-62
2023/01/06 14:38:28;;;;;;;1.57;0.70;;;;;;;;;;4990139;28;20987;-60
2023/01/06 14:41:04;;;;;;;1.10;0.50;;;;;;;;;;4990865;28;20474;-60
2023/01/06 14:43:36;;;;;;;1.00;0.60;;;;;;;;;;5011103;28;20513;-60
2023/01/06 14:46:13;;;;;;;1.30;0.83;;;;;;;;;;5006712;28;20426;-62
2023/01/06 14:48:41;;;;;;;1.00;0.57;;;;;;;;;;5009272;28;20513;-61
2023/01/06 14:51:07;;;;;;;1.00;0.60;;;;;;;;;;4939128;28;20918;-66
2023/01/06 14:53:38;;;;;;;1.40;0.67;;;;;;;;;;4966893;28;20543;-62
2023/01/06 14:56:04;;;;;;;1.20;0.80;;;;;;;;;;4990757;28;20523;-60
2023/01/06 14:58:31;;;;;;;1.30;0.80;;;;;;;;;;4967415;28;20438;-60